createdAt,value
2017-01-06T00:01:55.507Z,-7.44
2017-01-06T00:04:08.597Z,-7.46
2017-01-06T00:06:25.571Z,-7.44
2017-01-06T00:08:38.206Z,-7.41
2017-01-06T00:10:51.056Z,-7.41
2017-01-06T00:13:09.696Z,-7.39
2017-01-06T00:15:26.149Z,-7.37
2017-01-06T00:17:43.183Z,-7.41
2017-01-06T00:19:58.796Z,-7.41
2017-01-06T00:22:16.285Z,-7.41
2017-01-06T00:24:28.970Z,-7.41
2017-01-06T00:26:43.776Z,-7.43
2017-01-06T00:28:53.939Z,-7.44
2017-01-06T00:31:06.578Z,-7.48
2017-01-06T00:33:20.526Z,-7.54
2017-01-06T00:35:32.863Z,-7.64
2017-01-06T00:37:40.235Z,-7.76
2017-01-06T00:39:55.260Z,-7.87
2017-01-06T00:42:03.839Z,-7.96
2017-01-06T00:44:16.720Z,-8.06
2017-01-06T00:46:32.405Z,-8.13
2017-01-06T00:48:44.768Z,-8.23
2017-01-06T00:50:57.116Z,-8.29
2017-01-06T00:53:04.460Z,-8.33
2017-01-06T00:55:16.837Z,-8.42
2017-01-06T00:57:29.450Z,-8.47
2017-01-06T00:59:41.794Z,-8.57
2017-01-06T01:01:54.266Z,-8.68
2017-01-06T01:04:06.603Z,-8.78
2017-01-06T01:06:21.121Z,-8.89
2017-01-06T01:08:33.406Z,-9.02
2017-01-06T01:10:45.759Z,-9.15
2017-01-06T01:12:53.140Z,-9.23
2017-01-06T01:15:05.613Z,-9.37
2017-01-06T01:17:18.083Z,-9.54
2017-01-06T01:19:30.755Z,-9.68
2017-01-06T01:21:43.230Z,-9.76
2017-01-06T01:23:55.506Z,-9.76
2017-01-06T01:26:08.788Z,-9.81
2017-01-06T01:28:16.244Z,-9.87
2017-01-06T01:30:23.813Z,-9.89
2017-01-06T01:32:36.331Z,-10
2017-01-06T01:34:48.735Z,-10.12
2017-01-06T01:37:01.045Z,-10.3
2017-01-06T01:39:13.532Z,-10.5
2017-01-06T01:41:25.904Z,-10.62
2017-01-06T01:43:39.288Z,-10.72
2017-01-06T01:45:52.216Z,-10.65
2017-01-06T01:47:59.577Z,-10.68
2017-01-06T01:50:06.919Z,-10.69
2017-01-06T01:52:21.573Z,-10.71
2017-01-06T01:54:34.635Z,-10.69
2017-01-06T01:56:47.584Z,-10.64
2017-01-06T01:58:59.958Z,-10.64
2017-01-06T02:01:12.366Z,-10.57
2017-01-06T02:03:24.762Z,-10.39
2017-01-06T02:05:37.168Z,-10.31
2017-01-06T02:07:49.759Z,-10.33
2017-01-06T02:09:57.056Z,-10.4
2017-01-06T02:12:09.571Z,-10.43
2017-01-06T02:14:21.951Z,-10.47
2017-01-06T02:16:34.212Z,-10.43
2017-01-06T02:18:46.471Z,-10.5
2017-01-06T02:20:58.608Z,-10.52
2017-01-06T02:23:11.071Z,-10.65
2017-01-06T02:25:23.358Z,-10.73
2017-01-06T02:27:30.852Z,-10.65
2017-01-06T02:29:44.002Z,-10.52
2017-01-06T02:31:51.494Z,-10.51
2017-01-06T02:34:03.811Z,-10.44
2017-01-06T02:36:17.059Z,-10.4
2017-01-06T02:38:29.417Z,-10.41
2017-01-06T02:40:41.712Z,-10.43
2017-01-06T02:42:53.901Z,-10.52
2017-01-06T02:45:08.549Z,-10.51
2017-01-06T02:47:20.901Z,-10.44
2017-01-06T02:49:33.243Z,-10.44
2017-01-06T02:51:40.760Z,-10.44
2017-01-06T02:53:53.045Z,-10.52
2017-01-06T02:56:05.438Z,-10.52
2017-01-06T02:58:12.827Z,-10.68
2017-01-06T03:00:25.293Z,-10.88
2017-01-06T03:02:37.998Z,-11.06
2017-01-06T03:04:50.537Z,-11.3
2017-01-06T03:07:02.819Z,-11.5
2017-01-06T03:09:15.190Z,-11.64
2017-01-06T03:11:27.423Z,-11.93
2017-01-06T03:13:39.761Z,-12.08
2017-01-06T03:15:52.932Z,-12.32
2017-01-06T03:18:05.320Z,-12.51
2017-01-06T03:20:12.798Z,-12.76
2017-01-06T03:22:25.171Z,-12.88
2017-01-06T03:24:37.471Z,-13.06
2017-01-06T03:26:49.897Z,-13.22
2017-01-06T03:29:02.379Z,-13.33
2017-01-06T03:31:14.929Z,-13.25
2017-01-06T03:33:27.307Z,-13.42
2017-01-06T03:35:39.627Z,-13.54
2017-01-06T03:37:52.197Z,-13.54
2017-01-06T03:40:04.930Z,-13.66
2017-01-06T03:42:18.378Z,-13.76
2017-01-06T03:44:30.647Z,-13.83
2017-01-06T03:46:43.076Z,-13.9
2017-01-06T03:48:55.442Z,-13.99
2017-01-06T03:51:02.844Z,-14.08
2017-01-06T03:53:15.362Z,-14.08
2017-01-06T03:55:27.680Z,-14.06
2017-01-06T03:57:34.933Z,-14.18
2017-01-06T03:59:42.231Z,-14.28
2017-01-06T04:01:49.531Z,-14.34
2017-01-06T04:03:56.879Z,-14.21
2017-01-06T04:06:04.166Z,-14.35
2017-01-06T04:08:16.677Z,-14.39
2017-01-06T04:10:28.992Z,-14.25
2017-01-06T04:12:36.414Z,-14.46
2017-01-06T04:14:49.284Z,-14.59
2017-01-06T04:17:01.495Z,-14.7
2017-01-06T04:19:14.937Z,-14.6
2017-01-06T04:21:27.211Z,-14.42
2017-01-06T04:23:39.564Z,-14.36
2017-01-06T04:25:51.910Z,-14.17
2017-01-06T04:28:05.081Z,-13.99
2017-01-06T04:30:17.356Z,-13.66
2017-01-06T04:32:29.753Z,-13.53
2017-01-06T04:34:41.967Z,-13.42
2017-01-06T04:36:54.356Z,-13.07
2017-01-06T04:39:07.511Z,-12.74
2017-01-06T04:41:19.706Z,-12.64
2017-01-06T04:43:31.978Z,-12.69
2017-01-06T04:45:44.366Z,-13.06
2017-01-06T04:47:57.173Z,-13.46
2017-01-06T04:50:09.792Z,-13.85
2017-01-06T04:52:23.882Z,-14.06
2017-01-06T04:54:36.248Z,-14.28
2017-01-06T04:56:48.744Z,-14.31
2017-01-06T04:59:01.151Z,-14.38
2017-01-06T05:01:13.553Z,-14.52
2017-01-06T05:03:26.068Z,-14.35
2017-01-06T05:05:38.487Z,-14.11
2017-01-06T05:07:45.993Z,-14.08
2017-01-06T05:09:58.388Z,-14.03
2017-01-06T05:12:10.752Z,-13.83
2017-01-06T05:14:23.280Z,-13.88
2017-01-06T05:16:25.748Z,-14.03
2017-01-06T05:18:38.150Z,-14.44
2017-01-06T05:20:50.550Z,-14.73
2017-01-06T05:23:03.066Z,-14.89
2017-01-06T05:25:15.776Z,-15.1
2017-01-06T05:27:27.972Z,-15.17
2017-01-06T05:29:40.388Z,-15.35
2017-01-06T05:31:52.769Z,-15.46
2017-01-06T05:34:05.093Z,-15.58
2017-01-06T05:36:12.458Z,-15.53
2017-01-06T05:38:24.752Z,-15.52
2017-01-06T05:40:32.168Z,-15.48
2017-01-06T05:42:39.432Z,-15.58
2017-01-06T05:44:51.632Z,-15.7
2017-01-06T05:47:04.023Z,-15.63
2017-01-06T05:49:16.221Z,-15.58
2017-01-06T05:51:28.739Z,-15.67
2017-01-06T05:53:41.044Z,-15.7
2017-01-06T05:55:53.266Z,-15.81
2017-01-06T05:58:05.926Z,-15.94
2017-01-06T06:00:18.774Z,-16.01
2017-01-06T06:02:31.176Z,-16.01
2017-01-06T06:04:43.682Z,-15.9
2017-01-06T06:06:55.986Z,-15.81
2017-01-06T06:09:08.474Z,-16.02
2017-01-06T06:11:15.762Z,-16.11
2017-01-06T06:13:28.051Z,-16.06
2017-01-06T06:15:40.480Z,-16.17
2017-01-06T06:17:52.678Z,-16.23
2017-01-06T06:20:00.175Z,-16.17
2017-01-06T06:22:12.566Z,-15.91
2017-01-06T06:24:19.781Z,-15.72
2017-01-06T06:26:32.106Z,-15.93
2017-01-06T06:28:44.371Z,-16.05
2017-01-06T06:30:56.713Z,-16.16
2017-01-06T06:33:09.281Z,-16.22
2017-01-06T06:35:22.978Z,-16.32
2017-01-06T06:37:35.498Z,-16.4
2017-01-06T06:39:47.817Z,-16.46
2017-01-06T06:42:00.152Z,-16.33
2017-01-06T06:44:12.629Z,-16.25
2017-01-06T06:46:25.013Z,-15.99
2017-01-06T06:48:37.335Z,-15.93
2017-01-06T06:50:49.541Z,-15.81
2017-01-06T06:53:01.876Z,-15.72
2017-01-06T06:55:14.104Z,-15.56
2017-01-06T06:57:26.324Z,-15.31
2017-01-06T06:59:38.733Z,-15.1
2017-01-06T07:01:46.114Z,-15.14
2017-01-06T07:03:58.317Z,-15.05
2017-01-06T07:06:10.495Z,-14.94
2017-01-06T07:08:23.124Z,-14.8
2017-01-06T07:10:36.757Z,-14.66
2017-01-06T07:12:49.665Z,-14.56
2017-01-06T07:15:01.933Z,-14.52
2017-01-06T07:17:14.278Z,-14.42
2017-01-06T07:19:26.568Z,-14.28
2017-01-06T07:21:38.788Z,-14.1
2017-01-06T07:23:51.214Z,-13.9
2017-01-06T07:26:03.719Z,-13.81
2017-01-06T07:28:15.999Z,-13.67
2017-01-06T07:30:28.390Z,-13.67
2017-01-06T07:32:40.787Z,-13.67
2017-01-06T07:34:53.105Z,-13.63
2017-01-06T07:37:05.383Z,-13.38
2017-01-06T07:39:17.600Z,-13.27
2017-01-06T07:41:24.965Z,-13.08
2017-01-06T07:43:37.463Z,-12.86
2017-01-06T07:45:45.064Z,-12.62
2017-01-06T07:47:57.605Z,-12.46
2017-01-06T07:50:09.941Z,-12.36
2017-01-06T07:52:22.333Z,-12.33
2017-01-06T07:54:34.777Z,-12.27
2017-01-06T07:56:47.393Z,-12.29
2017-01-06T07:58:55.009Z,-12.19
2017-01-06T08:01:07.307Z,-12.05
2017-01-06T08:03:14.722Z,-12.11
2017-01-06T08:05:22.169Z,-12.25
2017-01-06T08:07:35.558Z,-12.43
2017-01-06T08:09:49.618Z,-12.36
2017-01-06T08:12:01.958Z,-12.21
2017-01-06T08:14:09.411Z,-11.87
2017-01-06T08:16:23.250Z,-11.42
2017-01-06T08:18:37.388Z,-11.08
2017-01-06T08:20:49.821Z,-10.78
2017-01-06T08:23:07.012Z,-10.65
2017-01-06T08:25:27.974Z,-10.69
2017-01-06T08:27:35.354Z,-10.81
2017-01-06T08:29:42.630Z,-10.94
2017-01-06T08:31:54.837Z,-11.18
2017-01-06T08:34:07.005Z,-11.44
2017-01-06T08:36:19.293Z,-11.61
2017-01-06T08:38:31.589Z,-11.36
2017-01-06T08:40:43.899Z,-10.81
2017-01-06T08:42:56.297Z,-10.16
2017-01-06T08:45:08.588Z,-9.77
2017-01-06T08:47:20.725Z,-9.45
2017-01-06T08:49:32.898Z,-9.3
2017-01-06T08:51:44.981Z,-9.52
2017-01-06T08:53:57.310Z,-9.86
2017-01-06T08:56:09.507Z,-9.95
2017-01-06T08:58:21.715Z,-9.9
2017-01-06T09:00:34.068Z,-9.89
2017-01-06T09:02:46.552Z,-9.83
2017-01-06T09:04:53.846Z,-9.72
2017-01-06T09:07:06.404Z,-9.81
2017-01-06T09:09:18.616Z,-9.72
2017-01-06T09:11:30.990Z,-9.62
2017-01-06T09:13:43.359Z,-9.29
2017-01-06T09:15:55.740Z,-9.12
2017-01-06T09:18:08.104Z,-9.04
2017-01-06T09:20:20.428Z,-8.96
2017-01-06T09:22:44.028Z,-8.83
2017-01-06T09:24:56.243Z,-8.69
2017-01-06T09:27:08.571Z,-8.6
2017-01-06T09:29:20.782Z,-8.83
2017-01-06T09:31:32.987Z,-8.93
2017-01-06T09:33:40.272Z,-8.6
2017-01-06T09:35:47.486Z,-8.4
2017-01-06T09:37:59.856Z,-8.23
2017-01-06T09:40:07.261Z,-8.08
2017-01-06T09:42:14.441Z,-8.42
2017-01-06T09:44:26.955Z,-8.54
2017-01-06T09:46:39.148Z,-8.09
2017-01-06T09:48:51.477Z,-7.9
2017-01-06T09:51:03.714Z,-8.05
2017-01-06T09:53:16.048Z,-8.15
2017-01-06T09:55:28.324Z,-7.41
2017-01-06T09:57:40.839Z,-6.91
2017-01-06T09:59:53.081Z,-6.73
2017-01-06T10:02:05.234Z,-6.71
2017-01-06T10:04:17.437Z,-6.59
2017-01-06T10:06:29.656Z,-6.4
2017-01-06T10:08:41.811Z,-6.21
2017-01-06T10:10:49.307Z,-6
2017-01-06T10:13:01.644Z,-5.69
2017-01-06T10:15:13.913Z,-5.03
2017-01-06T10:17:21.408Z,-4.77
2017-01-06T10:19:34.745Z,-4.95
2017-01-06T10:21:47.024Z,-4.79
2017-01-06T10:23:59.584Z,-2.27
2017-01-06T10:26:11.951Z,3.2
2017-01-06T10:28:24.283Z,-0.01
2017-01-06T10:30:36.894Z,-3.88
2017-01-06T10:32:44.114Z,-5.55
2017-01-06T10:34:56.301Z,-6.47
2017-01-06T10:37:08.805Z,-6.95
2017-01-06T10:39:21.430Z,-7.25
2017-01-06T10:41:33.957Z,-7.5
2017-01-06T10:43:46.670Z,-7.68
2017-01-06T10:45:59.095Z,-7.73
2017-01-06T10:48:11.506Z,-7.73
2017-01-06T10:50:24.555Z,-7.78
2017-01-06T10:52:38.186Z,-7.89
2017-01-06T10:54:51.664Z,-7.91
2017-01-06T10:57:04.031Z,-7.78
2017-01-06T10:59:16.559Z,-5.48
2017-01-06T11:01:30.611Z,3.75
2017-01-06T11:03:43.664Z,8.19
2017-01-06T11:05:51.235Z,10.34
2017-01-06T11:08:04.188Z,11.8
2017-01-06T11:10:16.789Z,12.74
2017-01-06T11:12:24.415Z,13.59
2017-01-06T11:14:36.850Z,13.96
2017-01-06T11:16:49.321Z,14.73
2017-01-06T11:19:01.620Z,15.07
2017-01-06T11:21:13.809Z,14.73
2017-01-06T11:23:26.321Z,14.46
2017-01-06T11:25:39.353Z,15.01
2017-01-06T11:27:48.132Z,14.54
2017-01-06T11:30:01.794Z,14.65
2017-01-06T11:32:18.469Z,15.19
2017-01-06T11:34:26.522Z,14.43
2017-01-06T11:36:39.194Z,14.37
2017-01-06T11:38:47.996Z,13.95
2017-01-06T11:41:01.446Z,15.23
2017-01-06T11:43:14.544Z,15.64
2017-01-06T11:45:27.850Z,15.5
2017-01-06T11:47:40.977Z,13.89
2017-01-06T11:49:54.368Z,13.36
2017-01-06T11:52:08.910Z,9.35
2017-01-06T11:54:22.226Z,11.17
2017-01-06T11:56:35.604Z,13.03
2017-01-06T11:58:50.419Z,12.45
2017-01-06T12:01:03.653Z,11.52
2017-01-06T12:03:12.588Z,12.6
2017-01-06T12:05:26.281Z,12.59
2017-01-06T12:07:38.980Z,11.35
2017-01-06T12:09:51.443Z,10.25
2017-01-06T12:12:04.382Z,10.45
2017-01-06T12:14:16.840Z,9.51
2017-01-06T12:16:29.387Z,8.41
2017-01-06T12:18:41.699Z,6.18
2017-01-06T12:20:55.267Z,4.27
2017-01-06T12:23:07.503Z,5.74
2017-01-06T12:25:15.218Z,7.5
2017-01-06T12:27:30.669Z,7.32
2017-01-06T12:29:43.302Z,6.06
2017-01-06T12:31:55.599Z,5.74
2017-01-06T12:34:08.008Z,6.27
2017-01-06T12:36:24.397Z,6.97
2017-01-06T12:38:37.108Z,6.46
2017-01-06T12:40:49.660Z,6.66
2017-01-06T12:43:02.181Z,6.19
2017-01-06T12:45:09.696Z,5.96
2017-01-06T12:47:22.321Z,6.22
2017-01-06T12:49:35.290Z,7.17
2017-01-06T12:51:47.560Z,4.72
2017-01-06T12:53:59.958Z,5.1
2017-01-06T12:56:13.059Z,3.43
2017-01-06T12:58:25.660Z,2.34
2017-01-06T13:00:38.399Z,3.65
2017-01-06T13:02:51.179Z,4.72
2017-01-06T13:05:03.700Z,4.55
2017-01-06T13:07:16.413Z,5.03
2017-01-06T13:09:29.010Z,6.89
2017-01-06T13:11:41.337Z,7.6
2017-01-06T13:13:48.715Z,6.76
2017-01-06T13:16:00.953Z,3.8
2017-01-06T13:18:13.478Z,3.62
2017-01-06T13:20:25.956Z,4.42
2017-01-06T13:22:38.590Z,3.39
2017-01-06T13:24:47.057Z,4.82
2017-01-06T13:26:54.650Z,4.96
2017-01-06T13:29:07.264Z,6.12
2017-01-06T13:31:19.765Z,8.11
2017-01-06T13:33:32.142Z,6.59
2017-01-06T13:35:44.544Z,4.7
2017-01-06T13:37:56.902Z,4.33
2017-01-06T13:40:09.383Z,6.37
2017-01-06T13:42:21.665Z,7.05
2017-01-06T13:44:33.979Z,7.4
2017-01-06T13:46:46.378Z,8.07
2017-01-06T13:48:53.868Z,8.8
2017-01-06T13:51:06.340Z,10.05
2017-01-06T13:53:19.421Z,11.14
2017-01-06T13:55:35.035Z,11.44
2017-01-06T13:57:49.204Z,11.7
2017-01-06T14:00:01.593Z,11.33
2017-01-06T14:02:09.612Z,8.33
2017-01-06T14:04:23.225Z,3.43
2017-01-06T14:06:35.873Z,0.76
2017-01-06T14:08:48.300Z,-0.47
2017-01-06T14:10:50.798Z,-1.13
2017-01-06T14:13:03.113Z,-1.66
2017-01-06T14:15:15.472Z,-1.97
2017-01-06T14:17:28.305Z,-2.4
2017-01-06T14:19:52.351Z,-2.78
2017-01-06T14:22:04.956Z,-3.09
2017-01-06T14:24:17.433Z,-3.39
2017-01-06T14:26:29.958Z,-3.6
2017-01-06T14:28:42.620Z,-3.82
2017-01-06T14:30:54.850Z,-4.06
2017-01-06T14:33:07.249Z,-4.25
2017-01-06T14:35:19.660Z,-4.51
2017-01-06T14:37:32.054Z,-4.71
2017-01-06T14:39:44.478Z,-4.95
2017-01-06T14:41:57.277Z,-5.22
2017-01-06T14:44:09.815Z,-5.44
2017-01-06T14:46:17.630Z,-5.62
2017-01-06T14:48:30.080Z,-5.8
2017-01-06T14:50:43.051Z,-6.01
2017-01-06T14:52:55.615Z,-6.23
2017-01-06T14:55:08.357Z,-6.44
2017-01-06T14:57:16.044Z,-6.65
2017-01-06T14:59:28.757Z,-6.84
2017-01-06T15:01:41.263Z,-7
2017-01-06T15:03:53.841Z,-7.25
2017-01-06T15:06:06.443Z,-7.5
2017-01-06T15:08:18.894Z,-7.69
2017-01-06T15:10:26.460Z,-7.9
2017-01-06T15:12:38.951Z,-8.02
2017-01-06T15:14:51.449Z,-8.24
2017-01-06T15:17:03.730Z,-8.44
2017-01-06T15:19:16.263Z,-8.68
2017-01-06T15:21:28.825Z,-8.87
2017-01-06T15:23:41.572Z,-9.07
2017-01-06T15:25:53.913Z,-9.22
2017-01-06T15:28:06.303Z,-9.33
2017-01-06T15:30:19.525Z,-9.45
2017-01-06T15:32:32.568Z,-9.61
2017-01-06T15:34:45.583Z,-9.79
2017-01-06T15:36:58.661Z,-10
2017-01-06T15:39:05.809Z,-10.28
2017-01-06T15:41:18.076Z,-10.44
2017-01-06T15:43:30.326Z,-10.61
2017-01-06T15:45:42.771Z,-10.81
2017-01-06T15:47:54.996Z,-10.95
2017-01-06T15:50:07.483Z,-11.19
2017-01-06T15:52:19.866Z,-11.32
2017-01-06T15:54:27.198Z,-11.45
2017-01-06T15:56:39.540Z,-11.48
2017-01-06T15:58:52.102Z,-11.6
2017-01-06T16:01:04.290Z,-11.74
2017-01-06T16:03:16.566Z,-11.87
2017-01-06T16:05:23.904Z,-12.04
2017-01-06T16:07:36.148Z,-12.11
2017-01-06T16:09:48.547Z,-12.24
2017-01-06T16:12:01.048Z,-12.36
2017-01-06T16:14:08.472Z,-12.59
2017-01-06T16:16:20.761Z,-12.76
2017-01-06T16:18:33.498Z,-12.74
2017-01-06T16:20:46.090Z,-12.68
2017-01-06T16:22:58.455Z,-12.78
2017-01-06T16:25:06.058Z,-12.86
2017-01-06T16:27:18.863Z,-13.07
2017-01-06T16:29:31.249Z,-13.28
2017-01-06T16:31:43.831Z,-13.46
2017-01-06T16:33:56.454Z,-13.63
2017-01-06T16:36:09.641Z,-13.73
2017-01-06T16:38:24.594Z,-13.83
2017-01-06T16:40:37.466Z,-13.82
2017-01-06T16:42:50.139Z,-13.82
2017-01-06T16:45:02.558Z,-13.75
2017-01-06T16:47:15.155Z,-13.71
2017-01-06T16:49:22.850Z,-13.6
2017-01-06T16:51:35.556Z,-13.63
2017-01-06T16:53:47.965Z,-13.82
2017-01-06T16:56:05.173Z,-14.13
2017-01-06T16:58:23.497Z,-14.36
2017-01-06T17:00:36.140Z,-14.55
2017-01-06T17:02:48.658Z,-14.73
2017-01-06T17:05:01.413Z,-14.85
2017-01-06T17:07:14.057Z,-14.87
2017-01-06T17:09:26.622Z,-14.68
2017-01-06T17:11:38.981Z,-14.6
2017-01-06T17:13:46.510Z,-14.76
2017-01-06T17:15:59.109Z,-14.8
2017-01-06T17:18:11.837Z,-14.91
2017-01-06T17:20:20.016Z,-14.98
2017-01-06T17:22:32.532Z,-15.06
2017-01-06T17:24:45.013Z,-15.03
2017-01-06T17:26:57.479Z,-15.09
2017-01-06T17:29:09.956Z,-15.29
2017-01-06T17:31:22.570Z,-15.43
2017-01-06T17:33:35.018Z,-15.55
2017-01-06T17:35:47.519Z,-15.6
2017-01-06T17:37:59.896Z,-15.56
2017-01-06T17:40:12.314Z,-15.56
2017-01-06T17:42:24.916Z,-15.56
2017-01-06T17:44:37.441Z,-15.48
2017-01-06T17:46:49.986Z,-15.67
2017-01-06T17:49:02.555Z,-15.69
2017-01-06T17:51:14.986Z,-15.55
2017-01-06T17:53:27.518Z,-15.58
2017-01-06T17:55:39.832Z,-15.8
2017-01-06T17:57:47.395Z,-15.98
2017-01-06T17:59:59.901Z,-16.04
2017-01-06T18:02:07.348Z,-16.2
2017-01-06T18:04:19.684Z,-16.23
2017-01-06T18:06:32.147Z,-15.91
2017-01-06T18:08:39.744Z,-15.74
2017-01-06T18:10:52.364Z,-16.01
2017-01-06T18:13:04.900Z,-16.22
2017-01-06T18:15:17.477Z,-16.33
2017-01-06T18:17:30.116Z,-16.43
2017-01-06T18:19:42.786Z,-16.55
2017-01-06T18:21:50.137Z,-16.55
2017-01-06T18:24:02.525Z,-16.62
2017-01-06T18:26:14.886Z,-16.63
2017-01-06T18:28:27.269Z,-16.65
2017-01-06T18:30:39.626Z,-16.48
2017-01-06T18:32:52.107Z,-16.02
2017-01-06T18:35:04.641Z,-15.98
2017-01-06T18:37:17.056Z,-16.19
2017-01-06T18:39:29.913Z,-16.37
2017-01-06T18:41:42.441Z,-16.59
2017-01-06T18:43:55.030Z,-16.89
2017-01-06T18:46:02.619Z,-16.97
2017-01-06T18:48:15.145Z,-16.86
2017-01-06T18:50:27.527Z,-16.9
2017-01-06T18:52:35.245Z,-16.86
2017-01-06T18:54:47.879Z,-16.94
2017-01-06T18:57:00.345Z,-16.89
2017-01-06T18:59:13.296Z,-16.9
2017-01-06T19:01:26.279Z,-16.9
2017-01-06T19:03:39.129Z,-16.87
2017-01-06T19:05:52.223Z,-16.89
2017-01-06T19:08:16.010Z,-16.83
2017-01-06T19:10:24.965Z,-16.89
2017-01-06T19:12:37.764Z,-16.84
2017-01-06T19:14:45.685Z,-16.92
2017-01-06T19:16:58.288Z,-17.02
2017-01-06T19:19:11.214Z,-16.94
2017-01-06T19:21:31.302Z,-17.12
2017-01-06T19:23:44.067Z,-17.3
2017-01-06T19:25:56.815Z,-17.44
2017-01-06T19:28:10.363Z,-17.44
2017-01-06T19:30:25.538Z,-17.36
2017-01-06T19:32:38.940Z,-17.4
2017-01-06T19:34:53.526Z,-17.23
2017-01-06T19:37:09.415Z,-17.1
2017-01-06T19:39:25.489Z,-17.19
2017-01-06T19:41:40.169Z,-17.42
2017-01-06T19:43:56.760Z,-17.4
2017-01-06T19:46:13.828Z,-17.12
2017-01-06T19:48:31.439Z,-17.37
2017-01-06T19:50:47.484Z,-17.43
2017-01-06T19:53:03.600Z,-17.58
2017-01-06T19:55:14.970Z,-17.72
2017-01-06T19:57:29.894Z,-17.68
2017-01-06T19:59:44.175Z,-17.57
2017-01-06T20:01:58.483Z,-17.57
2017-01-06T20:04:13.672Z,-17.34
2017-01-06T20:06:28.216Z,-17.44
2017-01-06T20:08:43.468Z,-17.71
2017-01-06T20:10:59.220Z,-17.54
2017-01-06T20:13:15.966Z,-17.57
2017-01-06T20:15:29.517Z,-17.82
2017-01-06T20:17:43.905Z,-18.03
2017-01-06T20:19:54.403Z,-18.11
2017-01-06T20:22:08.578Z,-18.08
2017-01-06T20:24:24.206Z,-18.14
2017-01-06T20:26:40.198Z,-18.2
2017-01-06T20:28:55.954Z,-18.31
2017-01-06T20:31:10.648Z,-18.41
2017-01-06T20:33:23.983Z,-18.49
2017-01-06T20:35:37.575Z,-18.54
2017-01-06T20:37:51.884Z,-18.33
2017-01-06T20:40:05.838Z,-18.25
2017-01-06T20:42:20.302Z,-18.28
2017-01-06T20:44:33.776Z,-18.42
2017-01-06T20:46:48.265Z,-18.56
2017-01-06T20:49:02.452Z,-18.67
2017-01-06T20:51:16.522Z,-18.33
2017-01-06T20:53:30.715Z,-18.28
2017-01-06T20:55:43.722Z,-18.44
2017-01-06T20:57:51.507Z,-18.44
2017-01-06T21:00:04.727Z,-18.52
2017-01-06T21:02:17.898Z,-18.59
2017-01-06T21:04:30.627Z,-18.67
2017-01-06T21:06:44.376Z,-18.82
2017-01-06T21:08:58.481Z,-18.86
2017-01-06T21:11:12.184Z,-18.7
2017-01-06T21:13:25.311Z,-18.65
2017-01-06T21:15:38.910Z,-18.78
2017-01-06T21:17:47.637Z,-18.84
2017-01-06T21:20:01.191Z,-18.88
2017-01-06T21:22:14.339Z,-18.84
2017-01-06T21:24:27.219Z,-18.82
2017-01-06T21:26:40.037Z,-18.92
2017-01-06T21:28:52.598Z,-19
2017-01-06T21:31:05.141Z,-19.07
2017-01-06T21:33:17.703Z,-19.13
2017-01-06T21:35:30.241Z,-19.1
2017-01-06T21:37:38.356Z,-19.06
2017-01-06T21:39:40.815Z,-18.85
2017-01-06T21:41:53.258Z,-18.84
2017-01-06T21:44:05.553Z,-18.91
2017-01-06T21:46:18.082Z,-18.89
2017-01-06T21:48:30.657Z,-18.96
2017-01-06T21:50:43.040Z,-19.1
2017-01-06T21:52:55.914Z,-19.12
2017-01-06T21:55:05.091Z,-19.16
2017-01-06T21:57:52.100Z,-19.24
2017-01-06T22:00:16.756Z,-19.09
2017-01-06T22:02:29.508Z,-19.13
2017-01-06T22:04:42.036Z,-19.24
2017-01-06T22:06:55.064Z,-19.17
2017-01-06T22:09:07.590Z,-19.24
2017-01-06T22:11:20.185Z,-19.3
2017-01-06T22:13:36.703Z,-19.34
2017-01-06T22:15:51.484Z,-19.33
2017-01-06T22:18:05.147Z,-19.33
2017-01-06T22:20:17.665Z,-19.48
2017-01-06T22:22:31.423Z,-19.6
2017-01-06T22:24:39.074Z,-19.64
2017-01-06T22:26:51.602Z,-19.62
2017-01-06T22:29:04.085Z,-19.6
2017-01-06T22:31:16.616Z,-19.57
2017-01-06T22:33:23.998Z,-19.23
2017-01-06T22:35:37.121Z,-19.07
2017-01-06T22:37:50.491Z,-19.21
2017-01-06T22:40:05.323Z,-19.46
2017-01-06T22:42:19.427Z,-19.6
2017-01-06T22:44:31.775Z,-19.69
2017-01-06T22:46:44.458Z,-19.7
2017-01-06T22:48:51.909Z,-19.69
2017-01-06T22:51:04.450Z,-19.59
2017-01-06T22:53:16.986Z,-19.63
2017-01-06T22:55:29.406Z,-19.7
2017-01-06T22:57:41.767Z,-19.77
2017-01-06T22:59:44.660Z,-19.8
2017-01-06T23:01:56.970Z,-19.57
2017-01-06T23:04:04.497Z,-19.3
2017-01-06T23:06:16.822Z,-19.24
2017-01-06T23:08:29.180Z,-19.52
2017-01-06T23:10:41.549Z,-19.49
2017-01-06T23:12:53.958Z,-19.34
2017-01-06T23:15:06.365Z,-19.16
2017-01-06T23:17:13.838Z,-19.2
2017-01-06T23:19:26.246Z,-19.2
2017-01-06T23:21:38.638Z,-19.21
2017-01-06T23:23:50.941Z,-19.39
2017-01-06T23:26:03.557Z,-19.53
2017-01-06T23:28:15.952Z,-19.74
2017-01-06T23:30:28.362Z,-19.81
2017-01-06T23:32:40.903Z,-19.83
2017-01-06T23:34:48.767Z,-19.95
2017-01-06T23:36:56.387Z,-20.05
2017-01-06T23:39:08.677Z,-19.95
2017-01-06T23:41:21.172Z,-19.96
2017-01-06T23:43:33.596Z,-19.63
2017-01-06T23:45:45.905Z,-19.77
2017-01-06T23:47:58.379Z,-19.9
2017-01-06T23:50:10.717Z,-19.81
2017-01-06T23:52:23.100Z,-19.67
2017-01-06T23:54:36.513Z,-19.74
2017-01-06T23:56:43.849Z,-19.99
2017-01-06T23:58:56.140Z,-20.09
